Time;durP1;ratioP1;P1;durP2;ratioP2;P2;SDS_P1;SDS_P2;PMS_P1;PMS_P2;Temp;Humidity;BMP_temperature;BMP_pressure;BME280_temperature;BME280_humidity;BME280_pressure;Samples;Min_cycle;Max_cycle;Signal;HPM_P1;HPM_P2
2021/11/09 00:01:07;;;;;;;13.13;5.37;;;3.80;86.40;;;4.25;64.76;98456.13;4965114;28;20050;-50
2021/11/09 00:03:44;;;;;;;7.87;5.37;;;3.80;86.70;;;4.21;64.96;98449.38;4966965;28;20047;-47
2021/11/09 00:08:49;;;;;;;11.07;6.03;;;3.70;87.00;;;4.14;65.18;98446.28;4964956;28;20047;-52
2021/11/09 00:11:17;;;;;;;;;;;3.60;87.10;;;4.08;65.02;98449.34;4966274;28;20054;-55
2021/11/09 00:13:45;;;;;;;9.37;5.97;;;3.60;87.30;;;4.08;64.77;98450.16;4968481;28;19918;-51
2021/11/09 00:16:13;;;;;;;10.97;5.27;;;3.60;87.30;;;4.06;65.43;98451.22;4966296;28;20056;-49
2021/11/09 00:18:41;;;;;;;10.60;5.20;;;3.60;87.50;;;4.03;64.79;98446.16;4965830;28;20054;-49
2021/11/09 00:21:09;;;;;;;8.07;5.10;;;3.60;87.80;;;3.99;65.14;98447.28;4967910;28;20051;-49
2021/11/09 00:23:38;;;;;;;12.33;5.53;;;3.50;87.80;;;3.99;64.81;98450.75;4965150;28;20044;-49
2021/11/09 00:26:07;;;;;;;11.43;6.17;;;3.50;88.10;;;3.96;65.38;98453.63;4965930;28;20353;-49
2021/11/09 00:28:35;;;;;;;10.67;5.33;;;3.50;87.70;;;3.94;64.83;98460.78;4966193;28;20245;-50
2021/11/09 00:31:03;;;;;;;10.40;5.93;;;3.50;88.10;;;3.91;64.90;98459.16;4965832;28;20063;-50
2021/11/09 00:33:32;;;;;;;13.43;6.77;;;3.50;88.00;;;3.91;65.15;98463.59;4964831;28;20069;-49
2021/11/09 00:36:00;;;;;;;10.73;5.63;;;3.50;88.00;;;3.90;65.38;98461.94;4965022;28;20055;-48
2021/11/09 00:38:29;;;;;;;11.23;6.07;;;3.50;87.80;;;3.88;65.06;98458.56;4966650;28;20059;-50
2021/11/09 00:40:58;;;;;;;10.17;6.23;;;3.40;87.70;;;3.85;65.25;98456.09;4966143;28;20346;-49
2021/11/09 00:43:26;;;;;;;15.73;7.27;;;3.40;87.60;;;3.84;65.13;98463.16;4966846;28;20280;-49
2021/11/09 00:45:54;;;;;;;11.03;5.93;;;3.40;88.10;;;3.85;64.97;98464.84;4966601;28;20502;-49
2021/11/09 00:48:22;;;;;;;9.73;5.93;;;3.40;87.40;;;3.82;64.73;98458.91;4966010;28;20285;-49
2021/11/09 00:50:53;;;;;;;12.80;6.63;;;3.40;87.20;;;3.80;65.21;98466.06;4966039;28;20046;-47
2021/11/09 00:53:22;;;;;;;14.70;7.70;;;3.40;87.70;;;3.76;64.92;98470.69;4965731;28;20234;-48
2021/11/09 00:55:50;;;;;;;15.73;8.20;;;3.30;88.10;;;3.75;64.86;98461.13;4966321;28;20053;-49
2021/11/09 00:58:18;;;;;;;15.70;8.40;;;3.30;88.80;;;3.77;65.22;98468.94;4965273;28;20058;-48
2021/11/09 01:00:47;;;;;;;20.00;8.30;;;3.40;88.80;;;3.79;65.43;98467.88;4965918;28;20046;-50
2021/11/09 01:03:16;;;;;;;15.30;7.33;;;3.40;88.70;;;3.78;65.45;98474.09;4965961;28;20058;-51
2021/11/09 01:05:45;;;;;;;13.57;7.27;;;3.40;88.00;;;3.75;64.88;98469.84;4966038;28;20050;-49
2021/11/09 01:08:15;;;;;;;14.57;7.83;;;3.30;88.70;;;3.76;65.47;98470.69;4965202;28;20406;-50
2021/11/09 01:10:49;;;;;;;12.23;7.70;;;3.30;88.30;;;3.75;65.40;98472.50;4965718;28;20054;-53
2021/11/09 01:13:21;;;;;;;11.87;6.17;;;3.40;88.60;;;3.76;65.53;98473.31;4965550;28;20058;-49
2021/11/09 01:15:52;;;;;;;12.20;6.50;;;3.40;89.00;;;3.76;65.71;98473.31;4966445;28;20085;-53
2021/11/09 01:18:29;;;;;;;15.60;6.13;;;3.40;88.50;;;3.74;65.35;98473.44;4965202;28;20057;-51
2021/11/09 01:20:59;;;;;;;13.83;6.23;;;3.40;89.10;;;3.77;65.49;98471.56;4965604;28;20051;-52
2021/11/09 01:23:27;;;;;;;13.87;6.63;;;3.40;89.20;;;3.79;65.60;98478.41;4969307;28;20061;-52
2021/11/09 01:25:56;;;;;;;15.83;5.90;;;3.50;89.40;;;3.81;65.92;98478.31;4969414;28;20055;-50
2021/11/09 01:28:24;;;;;;;11.83;6.80;;;3.50;89.70;;;3.82;65.63;98485.25;4969510;28;20055;-51
2021/11/09 01:30:53;;;;;;;9.53;5.33;;;3.50;89.80;;;3.83;65.92;98479.06;4968989;28;20063;-48
2021/11/09 01:33:22;;;;;;;17.83;7.23;;;3.50;90.20;;;3.83;66.05;98473.78;4969788;28;20069;-49
2021/11/09 01:35:50;;;;;;;12.90;5.87;;;3.50;90.20;;;3.87;66.12;98476.13;4968112;28;20061;-52
2021/11/09 01:42:59;;;;;;;11.87;5.60;;;3.60;91.00;;;3.86;66.39;98468.34;4975987;28;20041;-52
2021/11/09 01:45:29;;;;;;;12.00;5.80;;;3.50;92.70;;;3.90;66.21;98467.19;4968776;28;20059;-48
2021/11/09 01:47:57;;;;;;;12.17;6.40;;;3.60;92.30;;;3.96;66.59;98460.69;4969413;28;20264;-51
2021/11/09 01:50:35;;;;;;;10.27;5.40;;;3.70;92.20;;;4.02;66.13;98453.22;4969217;28;20234;-51
2021/11/09 01:53:05;;;;;;;15.47;6.43;;;3.80;92.20;;;4.08;66.87;98454.59;4969031;28;20046;-51
2021/11/09 01:55:35;;;;;;;12.07;7.27;;;3.90;92.20;;;4.12;66.34;98454.28;4967750;28;20257;-50
2021/11/09 01:58:06;;;;;;;13.73;5.93;;;3.90;92.10;;;4.15;67.07;98450.63;4969239;28;20245;-49
2021/11/09 02:00:50;;;;;;;10.77;6.30;;;3.90;92.40;;;4.22;66.92;98458.97;4967531;28;20043;-49
2021/11/09 02:03:20;;;;;;;14.65;6.25;;;4.00;92.40;;;4.24;66.35;98467.63;4968772;28;20053;-51
2021/11/09 02:05:49;;;;;;;11.43;6.10;;;4.00;92.20;;;4.23;67.00;98466.78;4969565;28;20047;-49
2021/11/09 02:08:18;;;;;;;12.20;6.20;;;4.00;92.50;;;4.25;66.87;98459.59;4969222;28;20058;-50
2021/11/09 02:10:48;;;;;;;9.87;5.20;;;4.00;92.20;;;4.27;66.41;98470.06;4966185;28;20054;-49
2021/11/09 02:13:17;;;;;;;12.97;7.10;;;4.00;92.70;;;4.30;66.91;98467.19;4967302;28;20378;-49
2021/11/09 02:15:45;;;;;;;13.43;6.20;;;4.00;92.60;;;4.34;67.11;98473.97;4968604;28;20052;-53
2021/11/09 02:18:16;;;;;;;9.90;5.83;;;4.00;92.30;;;4.36;67.24;98471.22;4968562;28;20355;-54
2021/11/09 02:21:03;;;;;;;11.73;6.27;;;4.00;92.10;;;4.36;66.90;98471.22;4968688;28;20047;-49
2021/11/09 02:23:33;;;;;;;12.57;6.90;;;4.00;92.50;;;4.39;67.02;98471.88;4968718;28;20281;-49
2021/11/09 02:26:03;;;;;;;12.87;6.67;;;4.00;92.50;;;4.42;66.81;98478.72;4967897;28;20074;-50
2021/11/09 02:28:31;;;;;;;14.87;6.80;;;4.10;92.40;;;4.43;67.04;98483.91;4967829;28;20067;-53
2021/11/09 03:11:58;;;;;;;9.27;5.20;;;4.30;93.50;;;4.52;67.23;98479.81;4971608;28;20045;-50
2021/11/09 03:14:26;;;;;;;16.87;6.33;;;4.30;93.40;;;4.49;66.44;98480.84;4966573;28;20050;-51
2021/11/09 03:16:58;;;;;;;13.00;6.43;;;4.20;93.30;;;4.47;67.43;98474.84;4967586;28;20066;-50
2021/11/09 03:19:50;;;;;;;14.13;6.83;;;4.10;93.60;;;4.43;67.14;98473.34;4967755;28;20045;-50
2021/11/09 04:02:57;;;;;;;14.13;6.38;;;3.90;93.00;;;4.25;66.55;98471.94;4975750;28;20029;-48
2021/11/09 04:05:32;;;;;;;11.63;7.37;;;3.90;93.40;;;4.19;66.96;98470.56;4966322;28;20054;-49
2021/11/09 04:13:32;;;;;;;13.10;7.77;;;3.80;93.50;;;4.12;66.71;98483.28;4966435;28;20068;-49
2021/11/09 04:18:56;;;;;;;16.80;8.43;;;3.60;92.80;;;4.12;66.93;98480.66;4966031;28;20054;-53
2021/11/09 05:02:52;;;;;;;14.20;6.70;;;3.10;92.00;;;3.51;67.00;98474.06;4969696;28;20057;-49
2021/11/09 05:10:54;;;;;;;16.27;7.33;;;3.00;92.20;;;3.45;66.76;98487.59;4968848;28;20047;-52
2021/11/09 05:13:22;;;;;;;14.03;6.73;;;3.00;92.60;;;3.46;66.92;98490.13;4969331;28;20061;-52
2021/11/09 05:15:51;;;;;;;14.60;6.23;;;3.00;92.60;;;3.48;66.42;98490.03;4968672;28;20061;-52
2021/11/09 05:18:20;;;;;;;12.23;4.90;;;3.10;92.70;;;3.48;67.02;98490.03;4969096;28;20325;-49
2021/11/09 05:20:49;;;;;;;13.50;5.53;;;3.10;92.60;;;3.50;66.75;98490.78;4969539;28;20057;-47
2021/11/09 05:23:17;;;;;;;9.93;5.73;;;3.10;92.60;;;3.51;67.06;98493.34;4970220;28;20055;-48
2021/11/09 05:25:47;;;;;;;11.17;5.70;;;3.20;92.50;;;3.55;66.79;98502.72;4969166;28;20049;-48
2021/11/09 05:28:15;;;;;;;14.87;8.17;;;3.20;92.10;;;3.55;66.73;98496.63;4970790;28;20057;-48
2021/11/09 05:30:48;;;;;;;9.57;5.97;;;3.20;92.60;;;3.58;66.74;98500.84;4968849;28;20059;-51
2021/11/09 05:33:21;;;;;;;12.13;7.20;;;3.20;91.80;;;3.55;66.44;98496.63;4968775;28;20054;-48
2021/11/09 05:35:50;;;;;;;13.10;7.13;;;3.20;91.30;;;3.57;66.61;98504.41;4967692;28;20388;-48
2021/11/09 05:38:25;;;;;;;16.60;5.87;;;3.20;91.50;;;3.56;66.19;98506.19;4969209;28;20058;-50
2021/11/09 05:40:57;;;;;;;8.87;5.57;;;3.20;91.60;;;3.56;66.54;98500.94;4969162;28;20053;-48
2021/11/09 05:43:27;;;;;;;9.73;5.73;;;3.20;91.00;;;3.51;66.66;98503.88;4969934;28;20058;-49
2021/11/09 05:45:55;;;;;;;7.83;5.40;;;3.10;91.50;;;3.51;66.51;98503.88;4968745;28;20057;-50
2021/11/09 05:48:23;;;;;;;13.33;6.83;;;3.10;91.30;;;3.51;66.39;98500.41;4968614;28;20054;-52
2021/11/09 05:50:51;;;;;;;11.97;6.87;;;3.10;91.50;;;3.45;66.39;98499.00;4969139;28;20054;-52
2021/11/09 05:53:20;;;;;;;9.13;5.23;;;3.00;90.10;;;3.35;66.73;98496.09;4961232;28;20088;-53
2021/11/09 05:55:48;;;;;;;15.23;7.33;;;2.90;91.30;;;3.32;66.47;98501.53;4969177;28;20055;-49
2021/11/09 05:58:17;;;;;;;11.13;5.77;;;2.90;92.00;;;3.35;66.49;98506.59;4969146;28;20065;-52
2021/11/09 06:00:45;;;;;;;12.20;5.77;;;3.00;92.10;;;3.39;66.88;98507.25;4984250;28;20046;-55
2021/11/09 06:03:14;;;;;;;11.23;5.33;;;3.00;91.80;;;3.41;66.53;98510.63;4969271;28;20064;-56
2021/11/09 06:05:42;;;;;;;11.77;5.40;;;3.10;91.70;;;3.43;66.96;98514.03;4969115;28;20456;-53
2021/11/09 06:08:10;;;;;;;11.90;5.10;;;3.10;91.60;;;3.45;66.44;98512.16;4968617;28;20046;-51
2021/11/09 06:10:38;;;;;;;12.77;5.47;;;3.10;91.20;;;3.47;66.64;98525.19;4968131;28;20717;-49
2021/11/09 06:13:06;;;;;;;14.90;5.47;;;3.20;91.10;;;3.47;66.47;98512.03;4984657;28;20064;-48
2021/11/09 06:15:34;;;;;;;12.30;5.47;;;3.20;90.80;;;3.47;66.54;98520.78;4966988;28;20277;-49
2021/11/09 06:18:03;;;;;;;15.33;7.47;;;3.20;90.60;;;3.47;66.79;98522.56;4969578;28;20058;-49
2021/11/09 06:20:31;;;;;;;11.50;5.87;;;3.10;90.70;;;3.47;66.56;98531.31;4968760;28;20057;-50
2021/11/09 06:22:59;;;;;;;11.07;6.23;;;3.10;90.40;;;3.46;66.37;98528.78;4967680;28;20069;-53
2021/11/09 06:25:27;;;;;;;16.53;6.53;;;3.10;90.50;;;3.47;66.79;98525.19;4967912;28;20270;-50
2021/11/09 06:27:55;;;;;;;10.17;5.83;;;3.10;90.50;;;3.48;66.30;98527.75;4968408;28;20061;-51
2021/11/09 06:30:23;;;;;;;10.43;5.27;;;3.20;90.10;;;3.48;66.40;98535.63;4965696;28;20085;-49
2021/11/09 06:32:51;;;;;;;12.70;5.53;;;3.20;90.10;;;3.50;66.18;98538.19;4968624;28;20050;-51
2021/11/09 06:35:19;;;;;;;13.77;6.07;;;3.20;90.10;;;3.51;66.16;98543.34;4968784;28;20055;-50
2021/11/09 06:37:47;;;;;;;14.80;6.90;;;3.20;90.00;;;3.53;66.13;98548.53;4967962;28;20061;-50
2021/11/09 06:40:15;;;;;;;12.60;5.80;;;3.20;89.90;;;3.53;65.97;98557.28;4968919;28;20417;-50
2021/11/09 06:42:43;;;;;;;10.33;5.83;;;3.20;89.60;;;3.52;66.27;98554.72;4968917;28;20241;-49
2021/11/09 06:45:12;;;;;;;14.53;6.50;;;3.20;89.30;;;3.49;66.34;98560.16;4967931;28;20062;-51
2021/11/09 06:47:41;;;;;;;11.43;5.47;;;3.20;89.30;;;3.46;66.38;98557.75;4968572;28;20057;-50
2021/11/09 06:50:12;;;;;;;9.60;5.87;;;3.20;89.30;;;3.45;65.84;98556.91;4968175;28;20054;-51
2021/11/09 06:52:40;;;;;;;10.77;5.10;;;3.10;89.30;;;3.42;66.18;98567.63;4967855;28;20047;-49
2021/11/09 06:55:09;;;;;;;14.77;8.03;;;3.10;89.50;;;3.40;65.76;98572.13;4969394;28;20107;-48
2021/11/09 06:57:46;;;;;;;16.00;9.07;;;3.10;89.40;;;3.40;66.27;98566.84;4967927;28;20065;-50
2021/11/09 07:00:20;;;;;;;10.23;6.13;;;3.10;89.80;;;3.43;66.29;98571.09;4968150;28;20054;-48
2021/11/09 07:02:47;;;;;;;13.15;7.07;;;3.10;89.70;;;3.41;66.23;98571.16;4967784;28;20053;-48
2021/11/09 07:05:17;;;;;;;14.33;7.20;;;3.10;89.50;;;3.43;66.23;98587.75;4967633;28;20047;-50
2021/11/09 07:07:45;;;;;;;12.77;6.77;;;3.10;89.60;;;3.43;66.21;98585.13;4965580;28;20058;-48
2021/11/09 07:10:14;;;;;;;14.73;7.83;;;3.10;89.50;;;3.44;66.11;98580.69;4967331;28;20058;-48
2021/11/09 07:12:43;;;;;;;13.37;7.73;;;3.20;89.60;;;3.44;66.45;98586.78;4968538;28;20516;-50
2021/11/09 07:15:13;;;;;;;18.47;8.90;;;3.20;90.60;;;3.46;66.45;98591.97;4966917;28;20065;-48
2021/11/09 07:17:41;;;;;;;15.27;9.27;;;3.10;89.50;;;3.44;65.92;98599.13;4966982;28;20385;-48
2021/11/09 07:20:13;;;;;;;18.13;7.30;;;3.10;89.80;;;3.43;65.95;98598.28;4966968;28;20249;-49
2021/11/09 07:22:42;;;;;;;9.70;6.87;;;3.10;90.10;;;3.43;66.69;98595.66;4969124;28;20064;-50
2021/11/09 07:25:11;;;;;;;11.33;6.60;;;3.10;90.30;;;3.46;66.56;98602.50;4971482;28;20061;-48
2021/11/09 07:27:46;;;;;;;12.77;6.47;;;3.20;90.60;;;3.47;66.71;98606.81;4971692;28;20349;-50
2021/11/09 07:30:16;;;;;;;13.93;7.43;;;3.20;90.60;;;3.47;66.61;98604.19;4992106;28;20055;-49
2021/11/09 07:32:46;;;;;;;14.40;7.40;;;3.20;90.60;;;3.49;66.70;98607.56;4982951;28;20062;-50
2021/11/09 07:35:17;;;;;;;16.33;6.93;;;3.20;90.60;;;3.51;66.64;98614.44;4983012;28;20050;-51
2021/11/09 07:37:46;;;;;;;13.80;6.83;;;3.20;91.10;;;3.55;66.49;98613.31;4978983;28;20385;-47
2021/11/09 07:40:16;;;;;;;15.00;6.70;;;3.30;91.30;;;3.59;66.46;98610.47;4982788;28;20337;-47
2021/11/09 07:42:47;;;;;;;14.67;6.87;;;3.30;91.30;;;3.61;67.14;98612.09;4981576;28;20244;-52
2021/11/09 07:45:21;;;;;;;18.97;7.27;;;3.30;91.20;;;3.64;66.42;98616.31;4982939;28;20057;-52
2021/11/09 07:47:53;;;;;;;14.80;9.20;;;3.40;91.20;;;3.67;66.35;98618.78;4979187;28;20363;-48
2021/11/09 07:50:22;;;;;;;13.57;8.43;;;3.40;91.30;;;3.69;66.64;98614.25;4980252;28;20051;-51
2021/11/09 07:52:53;;;;;;;17.53;7.20;;;3.40;91.30;;;3.72;66.97;98611.44;4977867;28;20269;-49
2021/11/09 07:55:21;;;;;;;14.13;7.90;;;3.50;91.30;;;3.74;66.87;98617.44;4980411;28;20057;-48
2021/11/09 07:57:57;;;;;;;13.23;7.40;;;3.50;91.50;;;3.78;66.58;98626.00;4973913;28;20057;-52
2021/11/09 08:00:36;;;;;;;12.33;8.10;;;3.50;91.60;;;3.79;67.19;98623.28;4966584;28;20058;-50
2021/11/09 08:03:21;;;;;;;17.73;9.50;;;3.50;91.70;;;3.83;67.08;98630.06;4967910;28;20054;-50
2021/11/09 08:08:29;;;;;;;19.73;9.63;;;3.60;92.00;;;3.89;66.85;98613.84;4967823;28;20230;-51
2021/11/09 08:10:57;;;;;;;19.03;9.83;;;3.70;92.20;;;3.93;67.20;98617.16;4965443;28;20046;-51
2021/11/09 08:13:25;;;;;;;21.23;12.27;;;3.70;92.40;;;3.96;66.81;98616.97;4967327;28;20059;-51
2021/11/09 08:15:53;;;;;;;15.00;9.83;;;3.80;92.60;;;4.02;66.76;98618.38;4967186;28;20084;-49
2021/11/09 08:18:21;;;;;;;17.07;8.70;;;3.80;92.70;;;4.06;67.48;98614.59;4966678;28;20066;-53
2021/11/09 08:21:05;;;;;;;13.87;7.90;;;3.90;92.90;;;4.10;67.80;98609.03;4967799;28;20047;-54
2021/11/09 08:23:33;;;;;;;18.40;8.70;;;3.90;93.10;;;4.14;67.19;98617.59;4965437;28;20065;-52
2021/11/09 08:26:03;;;;;;;15.00;8.90;;;3.90;93.20;;;4.19;67.68;98618.16;4965941;28;20069;-51
2021/11/09 08:28:33;;;;;;;17.77;9.83;;;4.00;93.40;;;4.21;67.46;98616.28;4967428;28;20061;-50
2021/11/09 08:31:07;;;;;;;15.50;8.60;;;4.00;93.50;;;4.27;68.04;98615.88;4965946;28;20062;-53
2021/11/09 08:33:35;;;;;;;14.80;9.30;;;4.10;93.70;;;4.32;67.55;98620.84;4964968;28;20065;-52
2021/11/09 08:36:08;;;;;;;18.63;10.33;;;4.20;93.70;;;4.36;67.66;98616.22;4965994;28;20257;-52
2021/11/09 08:38:37;;;;;;;15.93;9.50;;;4.20;93.60;;;4.40;67.68;98615.09;4965359;28;20066;-49
2021/11/09 08:41:11;;;;;;;19.87;8.97;;;4.20;93.60;;;4.42;68.02;98614.06;4964787;28;20053;-53
2021/11/09 08:43:45;;;;;;;17.57;9.67;;;4.30;94.00;;;4.46;67.64;98619.97;4966458;28;20359;-53
2021/11/09 08:46:19;;;;;;;;;;;4.30;94.10;;;4.47;67.03;98619.88;4967906;28;20061;-51
2021/11/09 08:48:49;;;;;;;13.40;8.53;;;4.30;94.40;;;4.52;68.28;98612.50;4964739;28;19928;-52
2021/11/09 08:51:20;;;;;;;15.57;8.87;;;4.40;94.20;;;4.57;67.82;98619.28;4964432;28;20050;-51
2021/11/09 08:54:00;;;;;;;16.33;8.77;;;4.40;94.00;;;4.59;67.59;98615.59;4964968;28;20416;-54
2021/11/09 08:56:47;;;;;;;12.43;9.03;;;4.40;93.80;;;4.62;67.81;98611.94;4966618;28;20248;-51
2021/11/09 09:04:51;;;;;;;13.67;8.03;;;4.50;93.80;;;4.74;67.22;98617.22;4961503;28;20050;-54
2021/11/09 09:07:19;;;;;;;12.53;8.43;;;4.60;93.60;;;4.77;68.07;98615.31;4964893;28;20042;-53
2021/11/09 09:09:47;;;;;;;11.73;8.37;;;4.60;93.60;;;4.80;67.73;98610.69;4963103;28;20027;-54
2021/11/09 09:12:15;;;;;;;15.80;9.53;;;4.60;93.30;;;4.84;67.97;98611.34;4964978;28;20055;-55
2021/11/09 09:14:43;;;;;;;13.40;9.10;;;4.70;93.50;;;4.85;67.78;98611.25;4964505;28;20050;-49
2021/11/09 09:17:11;;;;;;;15.57;9.47;;;4.70;93.60;;;4.88;67.91;98613.66;4965196;28;20054;-53
2021/11/09 09:19:42;;;;;;;22.80;9.90;;;4.70;93.70;;;4.92;67.41;98615.19;4962229;28;20057;-50
2021/11/09 09:22:13;;;;;;;22.37;11.70;;;4.80;93.80;;;4.99;68.13;98606.84;4959251;28;20062;-50
2021/11/09 09:29:53;;;;;;;14.95;8.73;;;4.90;93.60;;;5.09;67.88;98614.03;4967259;28;20375;-56
2021/11/09 09:57:29;;;;;;;11.60;7.43;;;5.40;93.70;;;5.57;68.19;98617.91;4967672;28;20065;-55
2021/11/09 09:59:58;;;;;;;11.43;7.43;;;5.50;93.50;;;5.63;67.86;98625.41;4968508;28;20055;-50
2021/11/09 10:02:28;;;;;;;11.43;7.30;;;5.60;93.00;;;5.67;67.79;98625.06;4970798;28;20051;-49
2021/11/09 10:05:05;;;;;;;15.33;7.63;;;5.60;92.90;;;5.73;67.53;98616.69;4968036;28;20261;-52
2021/11/09 10:07:37;;;;;;;9.87;7.63;;;5.70;92.60;;;5.78;68.24;98605.84;4969046;28;20226;-51
2021/11/09 10:10:11;;;;;;;11.23;6.73;;;5.70;92.00;;;5.81;67.88;98616.16;4970189;28;20062;-53
2021/11/09 10:12:42;;;;;;;14.10;8.57;;;5.80;91.50;;;5.87;67.37;98614.91;4968499;28;20373;-52
2021/11/09 10:15:17;;;;;;;11.13;8.00;;;5.80;91.30;;;5.92;67.42;98607.50;4967191;28;20198;-51
2021/11/09 10:17:49;;;;;;;12.67;7.30;;;5.90;91.10;;;5.98;67.37;98612.38;4968834;28;20065;-50
2021/11/09 10:20:23;;;;;;;11.33;7.37;;;5.90;91.00;;;6.04;68.06;98606.66;4968363;28;20059;-53
2021/11/09 10:23:00;;;;;;;11.93;7.75;;;6.00;91.00;;;6.09;68.12;98606.34;4967888;28;20046;-50
2021/11/09 10:25:31;;;;;;;11.63;5.97;;;6.10;91.10;;;6.17;67.33;98597.88;4969525;28;20058;-52
2021/11/09 10:28:15;;;;;;;8.03;5.50;;;6.20;90.60;;;6.22;67.91;98596.56;4968502;28;20055;-51
2021/11/09 10:30:58;;;;;;;7.80;4.95;;;6.30;89.90;;;6.29;67.29;98605.75;4967734;28;20268;-55
2021/11/09 10:33:40;;;;;;;8.48;6.15;;;6.30;89.60;;;6.35;67.77;98595.69;4968545;28;20061;-51
2021/11/09 10:37:31;;;;;;;9.10;4.93;;;6.40;89.30;;;6.40;67.05;98585.63;4973221;28;20041;-52
2021/11/09 10:40:29;;;;;;;13.60;5.47;;;6.40;88.30;;;6.47;67.02;98586.84;4969051;28;20043;-51
2021/11/09 10:43:01;;;;;;;7.93;4.87;;;6.50;88.40;;;6.52;66.83;98584.72;4969427;28;20043;-53
2021/11/09 10:45:35;;;;;;;9.73;4.97;;;6.50;88.70;;;6.58;67.35;98586.06;4967858;28;20058;-54
2021/11/09 10:48:11;;;;;;;7.97;4.90;;;6.60;88.70;;;6.63;66.52;98582.13;4967768;28;20035;-52
2021/11/09 10:50:56;;;;;;;9.63;4.33;;;6.70;88.50;;;6.71;67.05;98573.63;4968237;28;20065;-50
2021/11/09 10:53:39;;;;;;;;;;;6.80;87.70;;;6.74;66.00;98580.47;4970040;28;20066;-54
2021/11/09 11:04:36;;;;;;;6.90;3.43;;;7.00;84.70;;;7.01;65.63;98559.03;4967029;28;20061;-48
2021/11/09 11:07:14;;;;;;;7.37;4.30;;;7.10;84.80;;;7.05;65.79;98563.13;4967333;28;20053;-54
2021/11/09 11:09:58;;;;;;;7.80;3.70;;;7.10;83.90;;;7.07;65.86;98556.75;4967014;28;20055;-54
2021/11/09 11:12:27;;;;;;;12.90;4.70;;;7.10;84.30;;;7.14;65.64;98566.91;4967296;28;20062;-51
2021/11/09 11:14:55;;;;;;;6.27;3.87;;;7.20;84.10;;;7.20;65.45;98561.13;4966131;28;20066;-51
2021/11/09 11:17:23;;;;;;;7.53;3.70;;;7.30;83.80;;;7.25;65.53;98565.13;4968314;28;20055;-52
2021/11/09 11:19:55;;;;;;;8.90;4.03;;;7.30;83.30;;;7.27;64.53;98555.25;4966870;28;20058;-51
2021/11/09 11:22:28;;;;;;;7.17;3.20;;;7.40;82.80;;;7.34;64.63;98574.16;4966830;28;20272;-49
2021/11/09 11:25:00;;;;;;;8.97;4.30;;;7.40;82.30;;;7.40;65.00;98560.41;4966164;28;20060;-51
2021/11/09 11:27:32;;;;;;;10.67;3.40;;;7.50;82.00;;;7.45;64.45;98566.22;4968235;28;20286;-52
2021/11/09 11:30:00;;;;;;;10.33;3.90;;;7.50;81.90;;;7.48;63.95;98557.19;4967356;28;20054;-53
2021/11/09 11:32:30;;;;;;;5.87;3.30;;;7.60;81.20;;;7.55;64.16;98553.09;4968861;28;20246;-48
2021/11/09 11:34:58;;;;;;;8.33;3.90;;;7.60;80.70;;;7.61;63.81;98555.25;4967283;28;20391;-52
2021/11/09 11:37:26;;;;;;;4.97;3.53;;;7.70;80.40;;;7.64;63.95;98554.19;4965961;28;20062;-49
2021/11/09 11:39:59;;;;;;;13.00;3.97;;;7.70;80.50;;;7.67;63.50;98552.13;4966944;28;20069;-54
2021/11/09 11:42:38;;;;;;;6.55;2.90;;;7.80;79.80;;;7.72;61.98;98546.47;4966633;28;20050;-52
2021/11/09 11:45:07;;;;;;;6.53;3.27;;;7.80;79.00;;;7.77;63.58;98540.78;4967616;28;20353;-53
2021/11/09 11:47:35;;;;;;;6.73;3.57;;;7.90;79.20;;;7.82;63.59;98534.16;4965281;28;20050;-52
2021/11/09 11:50:12;;;;;;;5.53;2.77;;;7.90;79.30;;;7.86;62.98;98526.81;4967503;28;20121;-54
2021/11/09 11:52:49;;;;;;;7.57;3.57;;;8.00;78.10;;;7.91;62.78;98516.69;4968048;28;20578;-49
2021/11/09 11:55:25;;;;;;;6.37;3.03;;;8.00;78.10;;;7.97;62.47;98518.84;4966451;28;20069;-53
2021/11/09 11:58:08;;;;;;;4.23;2.47;;;8.10;77.70;;;8.04;61.88;98521.84;4966738;28;20057;-50
2021/11/09 12:00:53;;;;;;;8.33;3.10;;;8.20;77.50;;;8.09;62.93;98507.25;4966562;28;20263;-53
2021/11/09 12:03:21;;;;;;;7.80;3.10;;;8.30;78.00;;;8.16;62.56;98512.03;4967146;28;20049;-52
2021/11/09 12:06:21;;;;;;;6.50;3.20;;;8.30;77.70;;;8.22;62.27;98508.88;4968179;28;20069;-50
2021/11/09 12:08:51;;;;;;;8.37;4.20;;;8.40;77.00;;;8.28;61.64;98503.94;4957211;28;20058;-53
2021/11/09 12:11:26;;;;;;;7.03;2.67;;;8.40;77.00;;;8.34;61.51;98499.94;4967219;28;20047;-49
2021/11/09 12:14:03;;;;;;;5.67;3.20;;;8.40;75.50;;;8.40;62.12;98502.09;4964564;28;20226;-49
2021/11/09 12:16:55;;;;;;;14.53;3.50;;;8.60;75.60;;;8.46;61.13;98498.13;4966434;28;20051;-49
2021/11/09 12:19:35;;;;;;;6.30;2.97;;;8.60;74.00;;;8.52;61.07;98499.44;4966643;28;20060;-49
2021/11/09 12:22:12;;;;;;;5.13;2.83;;;8.70;74.50;;;8.55;61.38;98486.75;4966093;28;20046;-52
2021/11/09 12:24:58;;;;;;;7.47;3.27;;;8.70;74.80;;;8.61;61.00;98490.72;4965438;28;20053;-50
2021/11/09 12:27:54;;;;;;;8.73;3.20;;;8.80;73.30;;;8.65;61.06;98494.78;4965740;28;20130;-51
2021/11/09 12:30:40;;;;;;;6.33;3.10;;;8.80;72.70;;;8.69;58.69;98496.22;4966573;28;20475;-52
2021/11/09 12:33:18;;;;;;;5.97;2.67;;;8.90;73.10;;;8.77;60.52;98499.06;4967622;28;20054;-49
2021/11/09 12:36:06;;;;;;;8.83;3.73;;;8.90;74.10;;;8.82;60.56;98493.34;4964765;28;20049;-48
2021/11/09 12:38:44;;;;;;;5.93;2.23;;;9.00;74.10;;;8.90;60.29;98500.66;4965858;28;20077;-51
2021/11/09 12:41:21;;;;;;;7.27;3.60;;;9.10;73.20;;;8.92;56.87;98494.28;4965417;28;20063;-52
2021/11/09 12:43:54;;;;;;;7.80;3.70;;;9.10;72.30;;;8.99;59.68;98495.41;4966678;28;20260;-49
2021/11/09 12:46:36;;;;;;;5.40;2.45;;;9.20;73.00;;;9.04;59.59;98487.91;4951033;28;20061;-49
2021/11/09 12:49:14;;;;;;;7.33;2.80;;;9.20;71.70;;;9.10;59.67;98477.75;4964976;28;20246;-50
2021/11/09 12:51:55;;;;;;;4.70;2.50;;;9.30;72.90;;;9.14;59.14;98477.34;4966539;28;20252;-49
2021/11/09 12:54:29;;;;;;;6.37;3.03;;;9.40;71.80;;;9.20;59.05;98465.34;4965919;28;20353;-50
2021/11/09 12:57:04;;;;;;;5.90;2.43;;;9.40;71.60;;;9.27;59.10;98477.13;4966051;28;20053;-48
2021/11/09 12:59:53;;;;;;;4.90;2.23;;;9.50;71.20;;;9.33;57.30;98476.59;4965732;28;20468;-48
2021/11/09 13:05:10;;;;;;;4.27;2.40;;;9.60;70.30;;;9.42;58.31;98480.25;4965898;28;20357;-48
2021/11/09 13:07:40;;;;;;;5.77;2.07;;;9.60;70.20;;;9.46;58.63;98471.06;4965698;28;20076;-51
2021/11/09 13:10:21;;;;;;;4.10;2.63;;;9.60;70.70;;;9.52;58.04;98472.31;4964977;28;20054;-51
2021/11/09 13:12:51;;;;;;;3.93;2.07;;;9.70;69.40;;;9.58;57.76;98469.16;4966851;28;20043;-50
2021/11/09 13:15:22;;;;;;;5.90;2.20;;;9.80;70.00;;;9.65;57.40;98467.59;4966380;28;20058;-54
2021/11/09 13:18:04;;;;;;;5.37;2.20;;;9.80;69.60;;;9.73;57.93;98461.63;4965000;28;20404;-48
2021/11/09 13:20:37;;;;;;;6.67;2.90;;;9.90;68.90;;;9.77;56.64;98463.88;4969281;28;20073;-51
2021/11/09 13:23:11;;;;;;;5.43;2.83;;;10.00;68.80;;;9.79;56.89;98453.09;4969515;28;20054;-46
2021/11/09 13:25:43;;;;;;;3.85;2.65;;;10.00;68.40;;;9.84;56.63;98457.03;4969163;28;20065;-52
2021/11/09 13:28:25;;;;;;;4.37;2.07;;;10.10;67.90;;;9.93;56.80;98459.88;4970926;28;20262;-48
2021/11/09 13:31:10;;;;;;;5.03;2.60;;;10.10;68.10;;;9.98;56.90;98454.94;4969296;28;20226;-47
2021/11/09 13:33:49;;;;;;;5.17;2.20;;;10.20;68.60;;;10.02;56.19;98457.22;4968270;28;20063;-50
2021/11/09 13:36:21;;;;;;;5.60;2.27;;;10.20;66.40;;;10.04;56.39;98449.94;4970627;28;20105;-48
2021/11/09 13:38:50;;;;;;;4.03;1.90;;;10.30;67.90;;;10.07;56.52;98447.97;4969308;28;20051;-51
2021/11/09 13:41:28;;;;;;;6.47;2.57;;;10.30;67.50;;;10.09;56.01;98448.69;4967291;28;20368;-48
2021/11/09 13:44:10;;;;;;;6.90;2.50;;;10.30;67.60;;;10.11;55.39;98446.72;4969717;28;20261;-47
2021/11/09 13:46:43;;;;;;;4.67;2.50;;;10.30;66.10;;;10.13;55.70;98450.91;4967912;28;20249;-49
2021/11/09 13:49:17;;;;;;;6.40;2.60;;;10.30;66.60;;;10.16;54.59;98450.66;4969215;28;20247;-47
2021/11/09 13:51:57;;;;;;;4.80;2.20;;;10.40;64.10;;;10.20;55.54;98457.38;4969288;28;20061;-49
2021/11/09 13:54:35;;;;;;;3.97;2.13;;;10.40;66.60;;;10.24;55.39;98458.78;4968567;28;20058;-51
2021/11/09 13:57:07;;;;;;;5.10;2.33;;;10.40;65.60;;;10.25;55.26;98462.25;4968722;28;20065;-48
2021/11/09 13:59:36;;;;;;;5.47;2.40;;;10.40;66.30;;;10.30;55.18;98460.06;4952576;28;20064;-47
2021/11/09 14:02:35;;;;;;;6.07;2.20;;;10.50;66.40;;;10.32;55.13;98458.09;4967983;28;20362;-48
2021/11/09 14:08:48;;;;;;;6.70;2.43;;;10.50;66.00;;;10.36;55.04;98430.22;4969412;28;20529;-51